Map

Track Data

SID SEASON NUMBER BASIN SUBBASIN NAME ISO_TIME NATURE LAT LON WMO_WIND WMO_PRES WMO_AGENCY TRACK_TYPE DIST2LAND LANDFALL IFLAG USA_AGENCY USA_ATCF_ID USA_LAT USA_LON USA_RECORD USA_STATUS USA_WIND USA_PRES USA_SSHS USA_R34_NE USA_R34_SE USA_R34_SW USA_R34_NW USA_R50_NE USA_R50_SE USA_R50_SW USA_R50_NW USA_R64_NE USA_R64_SE USA_R64_SW USA_R64_NW USA_POCI USA_ROCI USA_RMW USA_EYE TOKYO_LAT TOKYO_LON TOKYO_GRADE TOKYO_WIND TOKYO_PRES TOKYO_R50_DIR TOKYO_R50_LONG TOKYO_R50_SHORT TOKYO_R30_DIR TOKYO_R30_LONG TOKYO_R30_SHORT TOKYO_LAND CMA_LAT CMA_LON CMA_CAT CMA_WIND CMA_PRES HKO_LAT HKO_LON HKO_CAT HKO_WIND HKO_PRES NEWDELHI_LAT NEWDELHI_LON NEWDELHI_GRADE NEWDELHI_WIND NEWDELHI_PRES NEWDELHI_CI NEWDELHI_DP NEWDELHI_POCI REUNION_LAT REUNION_LON REUNION_TYPE REUNION_WIND REUNION_PRES REUNION_TNUM REUNION_CI REUNION_RMW REUNION_R34_NE REUNION_R34_SE REUNION_R34_SW REUNION_R34_NW REUNION_R50_NE REUNION_R50_SE REUNION_R50_SW REUNION_R50_NW REUNION_R64_NE REUNION_R64_SE REUNION_R64_SW REUNION_R64_NW BOM_LAT BOM_LON BOM_TYPE BOM_WIND BOM_PRES BOM_TNUM BOM_CI BOM_RMW BOM_R34_NE BOM_R34_SE BOM_R34_SW BOM_R34_NW BOM_R50_NE BOM_R50_SE BOM_R50_SW BOM_R50_NW BOM_R64_NE BOM_R64_SE BOM_R64_SW BOM_R64_NW BOM_ROCI BOM_POCI BOM_EYE BOM_POS_METHOD BOM_PRES_METHOD NADI_LAT NADI_LON NADI_CAT NADI_WIND NADI_PRES WELLINGTON_LAT WELLINGTON_LON WELLINGTON_WIND WELLINGTON_PRES DS824_LAT DS824_LON DS824_STAGE DS824_WIND DS824_PRES TD9636_LAT TD9636_LON TD9636_STAGE TD9636_WIND TD9636_PRES TD9635_LAT TD9635_LON TD9635_WIND TD9635_PRES TD9635_ROCI NEUMANN_LAT NEUMANN_LON NEUMANN_CLASS NEUMANN_WIND NEUMANN_PRES MLC_LAT MLC_LON MLC_CLASS MLC_WIND MLC_PRES USA_GUST BOM_GUST BOM_GUST_PER REUNION_GUST REUNION_GUST_PER USA_SEAHGT USA_SEARAD_NE USA_SEARAD_SE USA_SEARAD_SW USA_SEARAD_NW STORM_SPEED STORM_DIR
1964044S13172 1964 11 SP MM NOT_NAMED 1964-02-12 12:00:00 TS -13.0000 172.100 main 584 580 O________OO_O_ jtwc_sh SH151964 -13.0000 172.100 -1 -13.0000 172.100 TC 25 -13.0000 172.100 1 -13.0000 172.100 TC 30 13 146
1964044S13172 1964 11 SP MM NOT_NAMED 1964-02-12 15:00:00 TS -13.5266 172.462 main 594 585 P________PP_P_ SH151964 -13.5701 172.470 -1 -13.5701 172.470 TC 25 -13.5411 172.439 1 -13.4251 172.470 TC 30 12 147
1964044S13172 1964 11 SP MM NOT_NAMED 1964-02-12 18:00:00 TS -14.0389 172.788 main 595 584 O________OP_O_ jtwc_sh SH151964 -14.1000 172.800 -1 -14.1000 172.800 TC 25 -14.0556 172.753 1 -13.9000 172.800 TC 30 11 150
1964044S13172 1964 11 SP MM NOT_NAMED 1964-02-12 21:00:00 TS -14.5149 173.043 main 584 540 P________PP_P_ SH151964 -14.5524 173.053 -1 -14.5524 173.053 TC 25 -14.5173 173.016 1 -14.4375 173.052 TC 27 10 155
1964044S13172 1964 11 SP MM NOT_NAMED 1964-02-13 00:00:00 TS -14.9000 173.200 main 540 528 O________OO_O_ jtwc_sh SH151964 -14.9000 173.200 -1 -14.9000 173.200 TC 25 -14.9000 173.200 1 -14.9000 173.200 TC 25 7 163
1964044S13172 1964 11 SP MM NOT_NAMED 1964-02-13 03:00:00 TS -15.1480 173.245 main 528 516 P________PP_P_ SH151964 -15.1300 173.230 -1 -15.1300 173.230 TC 25 -15.1869 173.288 1 -15.1450 173.230 TC 27 4 0
1964044S13172 1964 11 SP MM NOT_NAMED 1964-02-13 06:00:00 TS -15.3243 173.225 main 516 505 O________OP_O_ jtwc_sh SH151964 -15.3000 173.200 -1 -15.3000 173.200 TC 25 -15.3972 173.298 1 -15.3000 173.200 TC 30 4 184
1964044S13172 1964 11 SP MM NOT_NAMED 1964-02-13 09:00:00 TS -15.5203 173.220 main 505 495 P________PP_P_ SH151964 -15.5075 173.207 -1 -15.5075 173.207 TC 25 -15.5589 173.260 1 -15.5075 173.207 TC 30 4 0
1964044S13172 1964 11 SP MM NOT_NAMED 1964-02-13 12:00:00 TS -15.7000 173.200 main 495 490 O________OO_O_ jtwc_sh SH151964 -15.7000 173.200 -1 -15.7000 173.200 TC 25 -15.7000 173.200 1 -15.7000 173.200 TC 30 3 189
1964044S13172 1964 11 SP MM NOT_NAMED 1964-02-13 15:00:00 TS -15.8562 173.157 main 486 486 P________PP_P_ SH151964 -15.8575 173.158 -1 -15.8575 173.158 TC 25 -15.8522 173.156 1 -15.8575 173.158 TC 30 3 198
1964044S13172 1964 11 SP MM NOT_NAMED 1964-02-13 18:00:00 TS -15.9981 173.100 main 490 485 O________OP_O_ jtwc_sh SH151964 -16.0000 173.100 -1 -16.0000 173.100 TC 25 -15.9925 173.100 1 -16.0000 173.100 TC 30 3 201
1964044S13172 1964 11 SP MM NOT_NAMED 1964-02-13 21:00:00 TS -16.1373 173.043 main 494 485 P________PP_P_ SH151964 -16.1350 173.043 -1 -16.1350 173.043 TC 25 -16.1366 173.044 1 -16.1425 173.043 TC 30 3 197
1964044S13172 1964 11 SP MM NOT_NAMED 1964-02-14 00:00:00 TS -16.3000 173.000 main 485 476 O________OO_O_ jtwc_sh SH151964 -16.3000 173.000 -1 -16.3000 173.000 TC 25 -16.3000 173.000 1 -16.3000 173.000 TC 30 4 185
1964044S13172 1964 11 SP MM NOT_NAMED 1964-02-14 03:00:00 TS -16.5234 172.993 main 476 465 P________PP_P_ SH151964 -16.5425 172.992 -1 -16.5425 172.992 TC 25 -16.5237 172.994 1 -16.4850 172.992 TC 30 5 182
1964044S13172 1964 11 SP MM NOT_NAMED 1964-02-14 06:00:00 TS -16.7662 173.000 main 465 459 O________OP_O_ jtwc_sh SH151964 -16.8000 173.000 -1 -16.8000 173.000 TC 25 -16.7650 173.000 1 -16.7000 173.000 TC 30 5 0
1964044S13172 1964 11 SP MM NOT_NAMED 1964-02-14 09:00:00 TS -17.0022 173.007 main 459 454 P________PP_P_ SH151964 -17.0225 173.007 -1 -17.0225 173.007 TC 25 -16.9987 173.006 1 -16.9650 173.007 TC 30 4 0
1964044S13172 1964 11 SP MM NOT_NAMED 1964-02-14 12:00:00 TS -17.2000 173.000 main 454 451 O________OO_O_ jtwc_sh SH151964 -17.2000 173.000 -1 -17.2000 173.000 TC 25 -17.2000 173.000 1 -17.2000 173.000 TC 30 3 186
1964044S13172 1964 11 SP MM NOT_NAMED 1964-02-14 15:00:00 TS -17.3221 172.968 main 451 450 P________PP_P_ SH151964 -17.3150 172.958 -1 -17.3150 172.958 TC 25 -17.3358 173.001 1 -17.3225 172.958 TC 30 2 201
1964044S13172 1964 11 SP MM NOT_NAMED 1964-02-14 18:00:00 TS -17.4093 172.921 main 460 458 O________OP_O_ jtwc_sh SH151964 -17.4000 172.900 -1 -17.4000 172.900 TC 25 -17.4372 172.982 1 -17.4000 172.900 TC 30 2 201
1964044S13172 1964 11 SP MM NOT_NAMED 1964-02-14 21:00:00 TS -17.5031 172.894 main 458 457 P________PP_P_ SH151964 -17.4999 172.887 -1 -17.4999 172.887 TC 25 -17.5201 172.923 1 -17.4924 172.880 TC 30 2 210
1964044S13172 1964 11 SP MM NOT_NAMED 1964-02-15 00:00:00 TS -17.6000 172.800 main 468 468 O________OO_O_ jtwc_sh SH151964 -17.6000 172.800 -1 -17.6000 172.800 TC 25 -17.6000 172.800 1 -17.6000 172.800 TC 30 4 236
1964044S13172 1964 11 SP MM NOT_NAMED 1964-02-15 03:00:00 TS -17.7288 172.546 main 498 486 P________PP_P_ SH151964 -17.7001 172.530 -1 -17.7001 172.530 TC 25 -17.7574 172.537 1 -17.7575 172.588 TC 30 6 245
1964044S13172 1964 11 SP MM NOT_NAMED 1964-02-15 06:00:00 TS -17.8514 172.230 main 489 462 O________OP_O_ jtwc_sh SH151964 -17.8000 172.200 -1 -17.8000 172.200 TC 25 -17.9058 172.221 1 -17.9000 172.300 TC 30 6 247
1964044S13172 1964 11 SP MM NOT_NAMED 1964-02-15 09:00:00 TS -17.9809 171.925 main 462 442 P________PP_P_ SH151964 -17.9525 171.905 -1 -17.9525 171.905 TC 25 -18.0011 171.918 1 -18.0176 171.970 TC 30 5 254
1964044S13172 1964 11 SP MM NOT_NAMED 1964-02-15 12:00:00 TS -18.0000 171.700 main 442 425 O________OO_O_ jtwc_sh SH151964 -18.0000 171.700 -1 -18.0000 171.700 TC 25 -18.0000 171.700 1 -18.0000 171.700 TC 30 3 306
1964044S13172 1964 11 SP MM NOT_NAMED 1964-02-15 15:00:00 TS -17.7758 171.630 main 425 419 P________PP_P_ SH151964 -17.8024 171.647 -1 -17.8024 171.647 TC 25 -17.7610 171.645 1 -17.7374 171.582 TC 30 5 357
1964044S13172 1964 11 SP MM NOT_NAMED 1964-02-15 18:00:00 TS -17.4599 171.670 main 426 420 O________OP_O_ jtwc_sh SH151964 -17.5000 171.700 -1 -17.5000 171.700 TC 25 -17.4397 171.681 1 -17.4000 171.600 TC 30 6 12
1964044S13172 1964 11 SP MM NOT_NAMED 1964-02-15 21:00:00 TS -17.1503 171.767 main 430 428 P________PP_P_ SH151964 -17.1675 171.785 -1 -17.1675 171.785 TC 25 -17.1486 171.776 1 -17.1175 171.720 TC 30 5 26
1964044S13172 1964 11 SP MM NOT_NAMED 1964-02-16 00:00:00 TS -17.0000 171.900 main 438 438 O________OO_O_ jtwc_sh SH151964 -17.0000 171.900 -1 -17.0000 171.900 TC 25 -17.0000 171.900 1 -17.0000 171.900 TC 30 2 100
1964044S13172 1964 11 SP MM NOT_NAMED 1964-02-16 03:00:00 TS -17.1901 172.005 main 451 451 P________PP_P_ SH151964 -17.2175 171.992 -1 -17.2175 171.992 TC 25 -17.1580 171.979 1 -17.1675 172.057 TC 30 6 159
1964044S13172 1964 11 SP MM NOT_NAMED 1964-02-16 06:00:00 TS -17.5412 172.121 main 468 468 O________OP_O_ jtwc_sh SH151964 -17.6000 172.100 -1 -17.6000 172.100 TC 25 -17.4648 172.082 1 -17.5000 172.200 TC 30 7 162
1964044S13172 1964 11 SP MM NOT_NAMED 1964-02-16 09:00:00 TS -17.8704 172.240 main 489 489 P________PP_P_ SH151964 -17.9000 172.228 -1 -17.9000 172.228 TC 25 -17.8392 172.220 1 -17.8424 172.285 TC 30 7 158
1964044S13172 1964 11 SP MM NOT_NAMED 1964-02-16 12:00:00 TS -18.2000 172.400 main 507 488 O________OO_O_ jtwc_sh SH151964 -18.2000 172.400 -1 -18.2000 172.400 TC 25 -18.2000 172.400 1 -18.2000 172.400 TC 30 7 151
1964044S13172 1964 11 SP MM NOT_NAMED 1964-02-16 15:00:00 TS -18.5218 172.622 main 489 462 P________PP_P_ SH151964 -18.5300 172.627 -1 -18.5300 172.627 TC 25 -18.4896 172.615 1 -18.5375 172.620 TC 30 8 141
1964044S13172 1964 11 SP MM NOT_NAMED 1964-02-16 18:00:00 TS -18.7856 172.893 main 462 436 O________OP_O_ jtwc_sh SH151964 -18.8000 172.900 -1 -18.8000 172.900 TC 25 -18.7423 172.874 1 -18.8000 172.900 TC 30 7 129
1964044S13172 1964 11 SP MM NOT_NAMED 1964-02-16 21:00:00 TS -18.9565 173.180 main 436 405 P________PP_P_ SH151964 -18.9674 173.185 -1 -18.9674 173.185 TC 25 -18.9239 173.171 1 -18.9674 173.177 TC 30 6 111
1964044S13172 1964 11 SP MM NOT_NAMED 1964-02-17 00:00:00 TS -19.0000 173.500 main 405 372 O________OO_O_ jtwc_sh SH151964 -19.0000 173.500 -1 -19.0000 173.500 TC 25 -19.0000 173.500 1 -19.0000 173.500 TC 30 6 85
1964044S13172 1964 11 SP MM NOT_NAMED 1964-02-17 03:00:00 TS -18.9034 173.851 main 362 326 P________PP_P_ SH151964 -18.8949 173.835 -1 -18.8949 173.835 TC 25 -18.9287 173.843 1 -18.8951 173.893 TC 30 7 67
1964044S13172 1964 11 SP MM NOT_NAMED 1964-02-17 06:00:00 TS -18.7137 174.228 main 326 280 O________OP_O_ jtwc_sh SH151964 -18.7000 174.200 -1 -18.7000 174.200 TC 25 -18.7549 174.214 1 -18.7000 174.300 TC 30 8 62
1964044S13172 1964 11 SP MM NOT_NAMED 1964-02-17 09:00:00 TS -18.5184 174.609 main 280 234 P________PP_P_ SH151964 -18.5225 174.592 -1 -18.5225 174.592 TC 25 -18.5287 174.602 1 -18.4999 174.650 TC 30 8 61
1964044S13172 1964 11 SP MM NOT_NAMED 1964-02-17 12:00:00 TS -18.3000 175.000 main 234 190 O________OO_O_ jtwc_sh SH151964 -18.3000 175.000 -1 -18.3000 175.000 TC 25 -18.3000 175.000 1 -18.3000 175.000 TC 30 9 58
1964044S13172 1964 11 SP MM NOT_NAMED 1964-02-17 15:00:00 TS -18.0351 175.424 main 190 148 P________PP_P_ SH151964 -17.9699 175.400 -1 -17.9699 175.400 TC 25 -18.0581 175.503 1 -18.1425 175.392 TC 30 9 59
1964044S13172 1964 11 SP MM NOT_NAMED 1964-02-17 18:00:00 TS -17.8089 175.849 main 149 101 O________OP_O_ jtwc_sh SH151964 -17.7000 175.800 -1 -17.7000 175.800 TC 25 -17.8358 175.995 1 -18.0000 175.800 TC 30 9 67
1964044S13172 1964 11 SP MM NOT_NAMED 1964-02-17 21:00:00 TS -17.6727 176.307 main 101 71 P________PP_P_ SH151964 -17.6027 176.282 -1 -17.6027 176.282 TC 25 -17.6954 176.390 1 -17.7902 176.275 TC 30 7 81
1964044S13172 1964 11 SP MM NOT_NAMED 1964-02-18 00:00:00 TS -17.7000 176.600 main 71 64 O________OO_O_ jtwc_sh SH151964 -17.7000 176.600 -1 -17.7000 176.600 TC 25 -17.7000 176.600 1 -17.7000 176.600 TC 30 4 137
1964044S13172 1964 11 SP MM NOT_NAMED 1964-02-18 03:00:00 TS -17.9390 176.566 main 64 63 P________PP_P_ SH151964 -17.9898 176.570 -1 -17.9898 176.570 TC 25 -17.9241 176.495 1 -17.8522 176.627 TC 30 7 204
1964044S13172 1964 11 SP MM NOT_NAMED 1964-02-18 06:00:00 TS -18.3232 176.302 main 100 100 O________OP_O_ jtwc_sh SH151964 -18.4000 176.300 -1 -18.4000 176.300 TC 25 -18.2930 176.209 1 -18.2000 176.400 TC 30 10 218
1964044S13172 1964 11 SP MM NOT_NAMED 1964-02-18 09:00:00 TS -18.7566 175.900 main 163 163 P________PP_P_ SH151964 -18.8003 175.900 -1 -18.8003 175.900 TC 25 -18.7402 175.843 1 -18.6854 175.958 TC 30 12 221
1964044S13172 1964 11 SP MM NOT_NAMED 1964-02-18 12:00:00 TS -19.2000 175.500 main 223 223 O________OO_O_ jtwc_sh SH151964 -19.2000 175.500 -1 -19.2000 175.500 TC 25 -19.2000 175.500 1 -19.2000 175.500 TC 30 10 215
1964044S13172 1964 11 SP MM NOT_NAMED 1964-02-18 15:00:00 TS -19.5712 175.292 main 268 268 P________PP_P_ SH151964 -19.5499 175.305 -1 -19.5499 175.305 TC 25 -19.6204 175.262 1 -19.5648 175.297 TC 30 8 203
1964044S13172 1964 11 SP MM NOT_NAMED 1964-02-18 18:00:00 TS -19.9254 175.180 main 298 298 O________OP_O_ jtwc_sh SH151964 -19.9000 175.200 -1 -19.9000 175.200 TC 25 -20.0018 175.121 1 -19.9000 175.200 TC 30 8 195
1964044S13172 1964 11 SP MM NOT_NAMED 1964-02-18 21:00:00 TS -20.3038 175.089 main 337 337 P________PP_P_ SH151964 -20.2876 175.103 -1 -20.2876 175.103 TC 25 -20.3573 175.044 1 -20.2826 175.105 TC 27 8 192
1964044S13172 1964 11 SP MM NOT_NAMED 1964-02-19 00:00:00 TS -20.7000 175.000 main 377 O________OO_O_ jtwc_sh SH151964 -20.7000 175.000 -1 -20.7000 175.000 TC 25 -20.7000 175.000 1 -20.7000 175.000 TC 25 8 191

Digital Typhoon Data and Search

About IBTrACS Database

This database is a web-friendly format of International Best Track Archive for Climate Stewardship (IBTrACS), a global best track data archive curated by NOAA dating back to 1842.

Updated: 2021-11-26